createdAt,value
2023-03-30T00:01:36.883Z,3.53
2023-03-30T00:04:05.117Z,3.28
2023-03-30T00:06:34.269Z,3.17
2023-03-30T00:09:06.203Z,3.10
2023-03-30T00:11:34.371Z,3.17
2023-03-30T00:14:02.860Z,2.85
2023-03-30T00:16:30.785Z,3.08
2023-03-30T00:18:58.943Z,2.80
2023-03-30T00:21:28.159Z,3.22
2023-03-30T00:23:55.863Z,3.15
2023-03-30T00:26:24.958Z,3.13
2023-03-30T00:28:52.937Z,2.70
2023-03-30T00:31:21.155Z,2.58
2023-03-30T00:33:50.246Z,3.45
2023-03-30T00:36:18.096Z,2.55
2023-03-30T00:38:48.233Z,2.70
2023-03-30T00:41:16.968Z,2.75
2023-03-30T00:44:30.215Z,2.53
2023-03-30T00:46:59.983Z,2.67
2023-03-30T00:49:28.120Z,2.53
2023-03-30T00:51:55.946Z,3.00
2023-03-30T00:54:23.783Z,2.70
2023-03-30T00:56:51.619Z,2.75
2023-03-30T00:59:20.852Z,2.55
2023-03-30T01:01:50.255Z,2.55
2023-03-30T01:04:18.791Z,2.88
2023-03-30T01:06:47.983Z,2.53
2023-03-30T01:09:17.382Z,2.60
2023-03-30T01:11:45.487Z,3.00
2023-03-30T01:14:16.091Z,2.88
2023-03-30T01:16:53.571Z,3.05
2023-03-30T01:19:51.193Z,2.70
2023-03-30T01:23:05.214Z,3.47
2023-03-30T01:26:06.965Z,3.20
2023-03-30T01:28:47.411Z,3.30
2023-03-30T01:31:45.582Z,2.78
2023-03-30T01:34:37.037Z,3.00
2023-03-30T01:37:34.639Z,2.60
2023-03-30T01:44:59.852Z,2.92
2023-03-30T01:47:36.371Z,2.75
2023-03-30T01:50:09.844Z,3.00
2023-03-30T01:52:42.588Z,3.30
2023-03-30T01:55:15.000Z,2.80
2023-03-30T01:57:47.606Z,2.83
2023-03-30T02:00:19.217Z,2.80
2023-03-30T02:02:54.503Z,2.47
2023-03-30T02:05:24.100Z,2.70
2023-03-30T02:07:59.818Z,3.00
2023-03-30T02:10:31.544Z,3.53
2023-03-30T02:13:01.000Z,2.25
2023-03-30T02:15:35.607Z,1.90
2023-03-30T02:18:05.241Z,1.90
2023-03-30T02:20:34.525Z,1.60
2023-03-30T02:23:06.062Z,1.73
2023-03-30T02:25:35.941Z,1.80
2023-03-30T02:28:03.949Z,2.20
2023-03-30T02:30:34.390Z,1.70
2023-03-30T02:33:02.526Z,1.77
2023-03-30T02:35:51.602Z,1.90
2023-03-30T02:38:41.689Z,2.38
2023-03-30T02:41:22.468Z,2.35
2023-03-30T02:43:57.149Z,1.75
2023-03-30T02:46:50.492Z,2.15
2023-03-30T02:49:26.790Z,2.22
2023-03-30T02:52:08.904Z,1.58
2023-03-30T02:54:49.694Z,1.88
2023-03-30T02:57:30.832Z,1.92
2023-03-30T03:00:23.723Z,2.00
2023-03-30T03:02:57.389Z,2.72
2023-03-30T03:05:32.479Z,2.22
2023-03-30T03:08:24.794Z,2.30
2023-03-30T03:10:53.058Z,2.40
2023-03-30T03:13:22.052Z,1.77
2023-03-30T03:15:50.630Z,2.42
2023-03-30T03:18:18.472Z,2.40
2023-03-30T03:20:46.452Z,2.10
2023-03-30T03:23:14.485Z,2.13
2023-03-30T03:25:53.154Z,2.13
2023-03-30T03:28:21.625Z,1.80
2023-03-30T03:30:53.382Z,2.40
2023-03-30T03:33:27.061Z,1.63
2023-03-30T03:36:12.111Z,2.08
2023-03-30T03:38:46.019Z,2.00
2023-03-30T03:41:16.505Z,2.53
2023-03-30T03:43:45.128Z,2.40
2023-03-30T03:46:16.342Z,2.60
2023-03-30T03:48:44.869Z,3.08
2023-03-30T03:51:12.712Z,4.45
2023-03-30T03:53:40.662Z,3.13
2023-03-30T03:56:14.339Z,2.75
2023-03-30T03:58:43.613Z,1.58
2023-03-30T04:01:14.308Z,1.73
2023-03-30T04:03:42.512Z,2.08
2023-03-30T04:06:10.284Z,2.10
2023-03-30T04:08:38.139Z,1.83
2023-03-30T04:11:26.618Z,1.88
2023-03-30T04:14:24.455Z,2.80
2023-03-30T04:17:09.224Z,2.17
2023-03-30T04:20:04.816Z,2.35
2023-03-30T04:22:53.210Z,3.67
2023-03-30T04:25:52.853Z,3.13
2023-03-30T04:28:40.181Z,3.17
2023-03-30T04:31:23.856Z,3.17
2023-03-30T04:34:09.388Z,2.78
2023-03-30T04:36:51.446Z,2.25
2023-03-30T04:39:29.983Z,2.88
2023-03-30T04:42:19.969Z,4.00
2023-03-30T04:44:59.867Z,3.20
2023-03-30T04:47:47.371Z,2.63
2023-03-30T04:50:35.602Z,3.35
2023-03-30T04:53:26.274Z,2.55
2023-03-30T04:56:26.126Z,2.65
2023-03-30T04:58:57.021Z,4.03
2023-03-30T05:01:41.908Z,3.78
2023-03-30T05:04:13.491Z,3.53
2023-03-30T05:06:59.723Z,2.42
2023-03-30T05:09:49.190Z,2.40
2023-03-30T05:12:39.740Z,3.50
2023-03-30T05:15:15.913Z,3.28
2023-03-30T05:17:43.518Z,3.00
2023-03-30T05:20:31.656Z,2.67
2023-03-30T05:23:09.356Z,2.53
2023-03-30T05:25:56.053Z,3.00
2023-03-30T05:28:44.764Z,3.45
2023-03-30T05:31:38.152Z,6.23
2023-03-30T05:34:28.917Z,3.20
2023-03-30T05:37:11.697Z,2.20
2023-03-30T05:39:44.524Z,2.78
2023-03-30T05:42:35.080Z,2.45
2023-03-30T05:45:11.703Z,2.00
2023-03-30T05:47:58.255Z,3.28
2023-03-30T05:50:49.230Z,2.13
2023-03-30T05:53:28.555Z,2.20
2023-03-30T05:56:15.684Z,3.17
2023-03-30T05:58:57.001Z,3.05
2023-03-30T06:01:40.676Z,2.70
2023-03-30T06:04:08.862Z,2.22
2023-03-30T06:06:37.548Z,3.00
2023-03-30T06:09:06.630Z,2.53
2023-03-30T06:11:36.159Z,3.13
2023-03-30T06:14:12.921Z,4.13
2023-03-30T06:16:44.833Z,4.72
2023-03-30T06:19:14.523Z,6.45
2023-03-30T06:21:42.118Z,4.53
2023-03-30T06:24:27.748Z,5.57
2023-03-30T06:26:56.392Z,2.53
2023-03-30T06:29:24.246Z,2.90
2023-03-30T06:31:52.105Z,4.72
2023-03-30T06:34:46.019Z,3.20
2023-03-30T06:37:15.448Z,2.20
2023-03-30T06:39:45.848Z,2.67
2023-03-30T06:42:13.543Z,2.45
2023-03-30T06:44:58.187Z,2.78
2023-03-30T06:47:26.170Z,2.13
2023-03-30T06:49:53.758Z,2.70
2023-03-30T06:52:53.612Z,2.53
2023-03-30T06:55:24.011Z,2.45
2023-03-30T06:57:51.638Z,2.50
2023-03-30T07:00:20.622Z,2.42
2023-03-30T07:03:07.277Z,2.28
2023-03-30T07:06:02.758Z,2.58
2023-03-30T07:08:40.253Z,2.70
2023-03-30T07:11:09.666Z,2.30
2023-03-30T07:13:40.070Z,2.60
2023-03-30T07:16:08.909Z,3.72
2023-03-30T07:18:36.698Z,1.95
2023-03-30T07:21:06.108Z,2.60
2023-03-30T07:23:39.366Z,2.38
2023-03-30T07:26:08.978Z,2.30
2023-03-30T07:28:48.159Z,2.55
2023-03-30T07:31:17.128Z,2.50
2023-03-30T07:33:44.975Z,5.22
2023-03-30T07:36:20.831Z,9.07
2023-03-30T07:38:48.530Z,3.20
2023-03-30T07:41:19.634Z,3.00
2023-03-30T07:43:51.374Z,2.38
2023-03-30T07:46:19.142Z,2.10
2023-03-30T07:48:50.624Z,2.70
2023-03-30T07:51:20.114Z,2.13
2023-03-30T07:54:07.161Z,2.17
2023-03-30T07:56:52.499Z,2.40
2023-03-30T07:59:20.538Z,2.67
2023-03-30T08:01:50.205Z,2.13
2023-03-30T08:04:39.091Z,2.10
2023-03-30T08:07:08.049Z,2.30
2023-03-30T08:09:35.858Z,1.75
2023-03-30T08:12:05.464Z,1.80
2023-03-30T08:14:33.010Z,1.88
2023-03-30T08:17:00.570Z,1.77
2023-03-30T08:19:28.587Z,1.92
2023-03-30T08:21:57.146Z,1.88
2023-03-30T08:24:25.046Z,1.73
2023-03-30T08:26:52.626Z,1.63
2023-03-30T08:29:22.018Z,1.73
2023-03-30T08:31:49.572Z,1.70
2023-03-30T08:34:17.132Z,1.70
2023-03-30T08:36:44.748Z,1.45
2023-03-30T08:39:12.278Z,1.40
2023-03-30T08:42:01.874Z,1.42
2023-03-30T08:44:35.334Z,1.73
2023-03-30T08:49:37.002Z,1.23
2023-03-30T08:52:06.290Z,1.17
2023-03-30T08:54:34.796Z,1.10
2023-03-30T08:57:09.967Z,1.27
2023-03-30T08:59:45.300Z,1.13
2023-03-30T09:02:18.481Z,2.40
2023-03-30T09:04:58.114Z,1.40
2023-03-30T09:07:28.794Z,1.45
2023-03-30T09:09:58.253Z,1.40
2023-03-30T09:12:34.302Z,1.45
2023-03-30T09:15:08.439Z,1.25
2023-03-30T09:17:42.649Z,1.40
2023-03-30T09:20:16.822Z,1.50
2023-03-30T09:22:46.590Z,1.02
2023-03-30T09:25:17.155Z,1.17
2023-03-30T09:27:53.022Z,1.20
2023-03-30T09:30:24.113Z,1.08
2023-03-30T09:33:03.365Z,1.30
2023-03-30T09:35:39.559Z,1.50
2023-03-30T09:38:10.025Z,1.20
2023-03-30T09:41:01.460Z,1.23
2023-03-30T09:43:34.878Z,1.52
2023-03-30T09:46:07.818Z,1.30
2023-03-30T09:48:43.123Z,1.73
2023-03-30T09:51:21.083Z,1.33
2023-03-30T09:53:51.618Z,1.45
2023-03-30T09:56:23.130Z,1.42
2023-03-30T09:58:50.842Z,2.20
2023-03-30T10:01:22.161Z,1.85
2023-03-30T10:04:08.976Z,2.08
2023-03-30T10:06:39.647Z,1.60
2023-03-30T10:09:12.431Z,2.20
2023-03-30T10:11:43.270Z,2.08
2023-03-30T10:14:29.484Z,1.90
2023-03-30T10:16:59.400Z,1.40
2023-03-30T10:19:27.472Z,1.50
2023-03-30T10:21:57.476Z,1.40
2023-03-30T10:24:27.922Z,1.23
2023-03-30T10:27:01.307Z,1.33
2023-03-30T10:32:02.946Z,1.50
2023-03-30T10:34:37.135Z,1.65
2023-03-30T10:37:11.724Z,1.60
2023-03-30T10:39:41.796Z,1.80
2023-03-30T10:42:15.908Z,1.40
2023-03-30T10:44:48.221Z,1.85
2023-03-30T10:47:36.496Z,1.65
2023-03-30T10:50:13.443Z,1.92
2023-03-30T10:52:58.565Z,1.52
2023-03-30T10:55:34.622Z,1.95
2023-03-30T10:58:13.682Z,1.52
2023-03-30T11:00:56.764Z,1.40
2023-03-30T11:03:29.238Z,1.60
2023-03-30T11:06:04.839Z,1.50
2023-03-30T11:08:38.024Z,1.60
2023-03-30T11:11:07.868Z,1.52
2023-03-30T11:13:39.840Z,1.55
2023-03-30T11:16:13.722Z,1.20
2023-03-30T11:18:49.498Z,1.40
2023-03-30T11:21:22.347Z,1.45
2023-03-30T11:23:54.080Z,1.50
2023-03-30T11:26:25.649Z,2.00
2023-03-30T11:29:02.809Z,1.50
2023-03-30T11:31:57.222Z,1.63
2023-03-30T11:34:32.856Z,1.17
2023-03-30T11:37:09.280Z,1.60
2023-03-30T11:39:42.184Z,1.55
2023-03-30T11:42:17.186Z,2.10
2023-03-30T11:44:44.977Z,1.98
2023-03-30T11:47:30.969Z,1.50
2023-03-30T11:50:14.739Z,1.40
2023-03-30T11:52:50.117Z,1.30
2023-03-30T11:55:28.969Z,1.50
2023-03-30T11:58:07.933Z,1.50
2023-03-30T12:00:49.156Z,1.67
2023-03-30T12:03:28.032Z,1.98
2023-03-30T12:06:12.911Z,1.70
2023-03-30T12:08:56.277Z,1.70
2023-03-30T12:11:34.292Z,1.52
2023-03-30T12:18:26.172Z,1.60
2023-03-30T12:21:04.122Z,1.48
2023-03-30T12:23:43.085Z,2.40
2023-03-30T12:26:23.535Z,1.67
2023-03-30T12:29:40.573Z,1.40
2023-03-30T12:31:52.467Z,1.95
2023-03-30T12:34:20.896Z,1.83
2023-03-30T12:36:55.191Z,1.33
2023-03-30T12:39:31.207Z,1.38
2023-03-30T12:42:06.681Z,1.63
2023-03-30T12:44:42.732Z,1.52
2023-03-30T12:47:32.988Z,1.58
2023-03-30T12:50:15.916Z,1.48
2023-03-30T12:53:01.858Z,1.60
2023-03-30T12:55:43.325Z,1.95
2023-03-30T12:58:43.944Z,1.80
2023-03-30T13:01:24.889Z,1.90
2023-03-30T13:03:54.139Z,1.95
2023-03-30T13:06:29.786Z,1.10
2023-03-30T13:09:25.268Z,1.70
2023-03-30T13:12:22.069Z,1.45
2023-03-30T13:14:59.351Z,1.63
2023-03-30T13:17:27.732Z,1.88
2023-03-30T13:20:28.114Z,1.75
2023-03-30T13:23:05.897Z,1.60
2023-03-30T13:25:45.329Z,1.48
2023-03-30T13:28:48.768Z,1.25
2023-03-30T13:31:37.514Z,1.05
2023-03-30T13:34:17.315Z,0.90
2023-03-30T13:36:55.075Z,0.90
2023-03-30T13:39:28.949Z,1.02
2023-03-30T13:42:13.090Z,1.20
2023-03-30T13:44:56.781Z,1.30
2023-03-30T13:47:41.720Z,1.02
2023-03-30T13:50:21.467Z,1.00
2023-03-30T13:52:51.164Z,0.98
2023-03-30T13:55:33.133Z,1.77
2023-03-30T13:58:05.635Z,1.45
2023-03-30T14:00:44.737Z,1.20
2023-03-30T14:03:31.471Z,0.80
2023-03-30T14:06:05.505Z,1.45
2023-03-30T14:08:35.435Z,0.90
2023-03-30T14:11:06.890Z,0.82
2023-03-30T14:13:38.485Z,1.40
2023-03-30T14:16:08.179Z,1.48
2023-03-30T14:18:36.502Z,0.80
2023-03-30T14:21:07.519Z,0.70
2023-03-30T14:23:38.201Z,1.50
2023-03-30T14:26:07.601Z,1.60
2023-03-30T14:28:38.372Z,1.00
2023-03-30T14:31:13.282Z,0.90
2023-03-30T14:33:41.372Z,0.60
2023-03-30T14:36:12.497Z,0.75
2023-03-30T14:38:42.297Z,0.90
2023-03-30T14:41:14.467Z,1.17
2023-03-30T14:43:51.653Z,1.23
2023-03-30T14:46:19.401Z,0.82
2023-03-30T14:48:50.694Z,1.05
2023-03-30T14:51:27.003Z,0.85
2023-03-30T14:53:57.667Z,0.80
2023-03-30T14:56:25.875Z,1.10
2023-03-30T14:58:56.202Z,1.02
2023-03-30T15:01:31.063Z,1.02
2023-03-30T15:04:00.765Z,1.10
2023-03-30T15:06:30.962Z,0.55
2023-03-30T15:09:02.423Z,1.33
2023-03-30T15:11:32.416Z,0.68
2023-03-30T15:14:08.829Z,0.70
2023-03-30T15:16:38.462Z,0.70
2023-03-30T15:19:13.500Z,0.60
2023-03-30T15:21:41.674Z,0.77
2023-03-30T15:24:17.262Z,0.75
2023-03-30T15:26:47.578Z,0.77
2023-03-30T15:29:19.189Z,0.75
2023-03-30T15:31:46.763Z,0.80
2023-03-30T15:34:16.892Z,0.60
2023-03-30T15:36:45.489Z,0.82
2023-03-30T15:39:25.481Z,0.80
2023-03-30T15:42:01.460Z,0.52
2023-03-30T15:44:33.756Z,0.70
2023-03-30T15:47:02.190Z,0.90
2023-03-30T16:02:42.407Z,0.70
2023-03-30T16:05:18.360Z,0.45
2023-03-30T16:07:46.135Z,0.93
2023-03-30T16:10:15.305Z,0.90
2023-03-30T16:12:44.638Z,0.85
2023-03-30T16:15:14.666Z,1.08
2023-03-30T16:17:42.970Z,0.88
2023-03-30T16:20:17.412Z,0.85
2023-03-30T16:22:47.275Z,0.70
2023-03-30T16:25:15.889Z,0.85
2023-03-30T16:27:44.325Z,0.77
2023-03-30T16:30:18.066Z,0.70
2023-03-30T16:32:46.222Z,1.20
2023-03-30T16:35:16.262Z,0.80
2023-03-30T16:37:43.895Z,0.90
2023-03-30T16:40:20.025Z,0.90
2023-03-30T16:42:47.701Z,0.52
2023-03-30T16:45:15.522Z,0.68
2023-03-30T16:47:44.190Z,0.65
2023-03-30T16:50:20.822Z,0.50
2023-03-30T16:52:48.447Z,0.57
2023-03-30T16:55:16.554Z,0.60
2023-03-30T16:57:44.470Z,0.70
2023-03-30T17:00:19.728Z,0.50
2023-03-30T17:02:47.557Z,0.80
2023-03-30T17:05:15.375Z,0.45
2023-03-30T17:07:44.656Z,0.50
2023-03-30T17:10:26.332Z,0.63
2023-03-30T17:12:55.419Z,0.60
2023-03-30T17:15:24.661Z,0.57
2023-03-30T17:17:52.834Z,0.80
2023-03-30T17:20:24.697Z,0.82
2023-03-30T17:22:53.665Z,0.90
2023-03-30T17:25:23.688Z,0.90
2023-03-30T17:27:52.404Z,1.08
2023-03-30T17:30:23.734Z,1.75
2023-03-30T17:32:51.820Z,1.35
2023-03-30T17:35:19.591Z,1.67
2023-03-30T17:37:47.185Z,1.25
2023-03-30T17:40:22.347Z,1.17
2023-03-30T17:42:50.513Z,1.20
2023-03-30T17:45:19.929Z,1.05
2023-03-30T17:47:48.515Z,1.63
2023-03-30T17:50:20.824Z,1.52
2023-03-30T17:52:48.575Z,2.00
2023-03-30T17:55:19.398Z,1.90
2023-03-30T17:57:47.090Z,1.60
2023-03-30T18:00:21.432Z,1.42
2023-03-30T18:02:49.733Z,0.77
2023-03-30T18:05:17.968Z,1.85
2023-03-30T18:07:46.504Z,2.90
2023-03-30T18:10:20.332Z,1.60
2023-03-30T18:12:48.798Z,3.80
2023-03-30T18:15:18.645Z,1.40
2023-03-30T18:17:46.642Z,5.45
2023-03-30T18:20:27.459Z,1.40
2023-03-30T18:22:55.080Z,1.80
2023-03-30T18:25:32.408Z,0.90
2023-03-30T18:28:01.098Z,1.00
2023-03-30T18:30:30.456Z,1.00
2023-03-30T18:32:58.681Z,2.10
2023-03-30T18:35:28.724Z,1.20
2023-03-30T18:37:57.253Z,1.10
2023-03-30T18:40:31.219Z,2.35
2023-03-30T18:43:00.899Z,1.30
2023-03-30T18:45:30.265Z,1.33
2023-03-30T18:47:59.434Z,1.35
2023-03-30T18:50:33.082Z,1.40
2023-03-30T18:53:02.295Z,0.90
2023-03-30T18:55:31.993Z,0.80
2023-03-30T18:57:59.669Z,1.35
2023-03-30T19:00:29.178Z,0.80
2023-03-30T19:02:57.541Z,1.00
2023-03-30T19:05:27.254Z,1.00
2023-03-30T19:07:55.903Z,1.10
2023-03-30T19:10:26.561Z,0.82
2023-03-30T19:12:56.590Z,0.65
2023-03-30T19:15:26.675Z,0.75
2023-03-30T19:17:55.220Z,1.00
2023-03-30T19:20:24.687Z,0.60
2023-03-30T19:22:52.679Z,0.60
2023-03-30T19:25:22.501Z,1.58
2023-03-30T19:28:01.927Z,1.20
2023-03-30T19:30:33.386Z,0.80
2023-03-30T19:33:04.319Z,0.77
2023-03-30T19:35:32.914Z,0.85
2023-03-30T19:38:00.888Z,1.40
2023-03-30T19:40:28.577Z,1.30
2023-03-30T19:42:56.181Z,0.77
2023-03-30T19:45:25.154Z,1.00
2023-03-30T19:47:54.302Z,1.05
2023-03-30T19:50:24.751Z,0.77
2023-03-30T19:52:54.805Z,0.65
2023-03-30T19:55:22.621Z,0.90
2023-03-30T19:57:50.477Z,0.57
2023-03-30T20:00:19.689Z,0.80
2023-03-30T20:02:48.886Z,0.70
2023-03-30T20:05:18.702Z,0.70
2023-03-30T20:07:47.378Z,0.80
2023-03-30T20:10:18.728Z,0.88
2023-03-30T20:12:46.590Z,0.98
2023-03-30T20:15:14.238Z,1.00
2023-03-30T20:17:42.123Z,1.10
2023-03-30T20:20:12.593Z,0.82
2023-03-30T20:22:43.110Z,1.27
2023-03-30T20:25:13.356Z,0.90
2023-03-30T20:27:41.406Z,0.80
2023-03-30T20:30:11.534Z,0.95
2023-03-30T20:32:39.232Z,1.00
2023-03-30T20:35:08.272Z,0.77
2023-03-30T20:37:35.948Z,1.98
2023-03-30T20:40:09.728Z,3.30
2023-03-30T20:42:39.643Z,2.17
2023-03-30T20:45:08.620Z,0.90
2023-03-30T20:47:36.297Z,1.25
2023-03-30T20:50:04.601Z,1.45
2023-03-30T20:52:32.227Z,1.10
2023-03-30T20:54:59.826Z,1.20
2023-03-30T20:57:28.828Z,0.95
2023-03-30T20:59:56.484Z,0.77
2023-03-30T21:02:24.092Z,1.35
2023-03-30T21:04:52.927Z,1.20
2023-03-30T21:07:20.483Z,1.02
2023-03-30T21:09:48.052Z,1.15
2023-03-30T21:12:15.712Z,1.23
2023-03-30T21:14:45.833Z,1.65
2023-03-30T21:17:13.777Z,2.33
2023-03-30T21:19:41.362Z,2.03
2023-03-30T21:22:08.978Z,2.15
2023-03-30T21:24:36.635Z,1.52
2023-03-30T21:27:04.349Z,1.75
2023-03-30T21:29:32.393Z,1.85
2023-03-30T21:32:01.415Z,2.10
2023-03-30T21:34:29.010Z,1.90
2023-03-30T21:36:56.747Z,2.20
2023-03-30T21:39:25.037Z,2.00
2023-03-30T21:41:52.570Z,2.00
2023-03-30T21:44:20.254Z,2.65
2023-03-30T21:46:47.800Z,2.00
2023-03-30T21:49:17.118Z,1.80
2023-03-30T21:51:44.696Z,2.35
2023-03-30T21:54:12.361Z,2.30
2023-03-30T21:56:39.886Z,2.22
2023-03-30T21:59:07.863Z,2.17
2023-03-30T22:01:35.574Z,2.22
2023-03-30T22:04:06.015Z,1.60
2023-03-30T22:06:35.427Z,1.95
2023-03-30T22:09:03.063Z,1.17
2023-03-30T22:11:30.841Z,1.30
2023-03-30T22:13:58.579Z,1.50
2023-03-30T22:16:28.976Z,1.80
2023-03-30T22:18:56.791Z,1.40
2023-03-30T22:21:25.937Z,1.45
2023-03-30T22:23:55.534Z,1.50
2023-03-30T22:26:23.478Z,1.45
2023-03-30T22:28:51.136Z,1.50
2023-03-30T22:31:18.849Z,1.15
2023-03-30T22:33:47.908Z,1.30
2023-03-30T22:36:18.809Z,1.75
2023-03-30T22:38:46.718Z,1.67
2023-03-30T22:41:15.933Z,1.30
2023-03-30T22:43:43.534Z,1.20
2023-03-30T22:46:11.679Z,1.48
2023-03-30T22:48:41.275Z,1.48
2023-03-30T22:51:09.080Z,1.30
2023-03-30T22:53:38.486Z,1.50
2023-03-30T22:56:07.524Z,1.58
2023-03-30T22:58:37.001Z,1.67
2023-03-30T23:01:06.972Z,1.30
2023-03-30T23:03:34.803Z,1.63
2023-03-30T23:06:02.529Z,1.40
2023-03-30T23:08:30.843Z,1.50
2023-03-30T23:11:03.742Z,1.67
2023-03-30T23:13:31.889Z,1.42
2023-03-30T23:16:01.409Z,1.83
2023-03-30T23:18:29.191Z,1.90
2023-03-30T23:20:57.909Z,1.50
2023-03-30T23:23:25.622Z,1.65
2023-03-30T23:25:53.485Z,1.55
2023-03-30T23:28:21.274Z,1.42
2023-03-30T23:30:49.001Z,1.55
2023-03-30T23:33:18.078Z,1.50
2023-03-30T23:35:50.148Z,1.40
2023-03-30T23:38:18.051Z,17.35
2023-03-30T23:40:46.363Z,14.15
2023-03-30T23:43:14.038Z,8.32
2023-03-30T23:45:43.625Z,8.48
2023-03-30T23:48:11.340Z,2.55
2023-03-30T23:50:41.186Z,1.58
2023-03-30T23:53:09.405Z,1.38
2023-03-30T23:55:37.627Z,1.60
2023-03-30T23:58:05.916Z,1.35
